sensor_id;sensor_type;location;lat;lon;timestamp;pressure;altitude;pressure_sealevel;temperature;humidity
14089;BME280;7120;52.890;6.040;2023-02-28T00:00:29;103194.00;;;5.69;81.19
14089;BME280;7120;52.890;6.040;2023-02-28T00:02:55;103187.53;;;4.84;84.34
14089;BME280;7120;52.890;6.040;2023-02-28T00:05:22;103195.63;;;4.77;86.30
14089;BME280;7120;52.890;6.040;2023-02-28T00:07:48;103184.63;;;5.05;84.75
14089;BME280;7120;52.890;6.040;2023-02-28T00:10:16;103192.75;;;4.92;86.82
14089;BME280;7120;52.890;6.040;2023-02-28T00:12:47;103174.41;;;5.14;85.54
14089;BME280;7120;52.890;6.040;2023-02-28T00:15:12;103179.22;;;5.25;84.37
14089;BME280;7120;52.890;6.040;2023-02-28T00:17:37;103186.31;;;5.33;83.91
14089;BME280;7120;52.890;6.040;2023-02-28T00:20:04;103189.25;;;5.38;83.69
14089;BME280;7120;52.890;6.040;2023-02-28T00:22:33;103185.25;;;5.27;83.94
14089;BME280;7120;52.890;6.040;2023-02-28T00:24:59;103176.72;;;5.37;83.34
14089;BME280;7120;52.890;6.040;2023-02-28T00:27:24;103175.06;;;5.29;83.68
14089;BME280;7120;52.890;6.040;2023-02-28T00:29:50;103161.69;;;5.34;83.56
14089;BME280;7120;52.890;6.040;2023-02-28T00:32:15;103182.31;;;5.48;82.88
14089;BME280;7120;52.890;6.040;2023-02-28T00:34:40;103166.69;;;5.44;83.13
14089;BME280;7120;52.890;6.040;2023-02-28T00:37:07;103173.34;;;5.55;82.76
14089;BME280;7120;52.890;6.040;2023-02-28T00:39:35;103155.19;;;5.48;82.28
14089;BME280;7120;52.890;6.040;2023-02-28T00:42:01;103160.38;;;5.57;82.65
14089;BME280;7120;52.890;6.040;2023-02-28T00:44:28;103153.31;;;5.56;82.51
14089;BME280;7120;52.890;6.040;2023-02-28T00:46:53;103150.19;;;5.59;82.88
14089;BME280;7120;52.890;6.040;2023-02-28T00:49:19;103157.88;;;5.68;81.81
14089;BME280;7120;52.890;6.040;2023-02-28T00:51:45;103166.81;;;5.82;81.93
14089;BME280;7120;52.890;6.040;2023-02-28T00:54:12;103155.78;;;5.64;83.12
14089;BME280;7120;52.890;6.040;2023-02-28T00:56:37;103158.09;;;5.67;82.07
14089;BME280;7120;52.890;6.040;2023-02-28T00:59:03;103154.19;;;5.23;83.60
14089;BME280;7120;52.890;6.040;2023-02-28T01:01:28;103160.22;;;5.05;84.73
14089;BME280;7120;52.890;6.040;2023-02-28T01:03:53;103143.13;;;5.11;84.92
14089;BME280;7120;52.890;6.040;2023-02-28T01:06:19;103147.09;;;5.29;84.28
14089;BME280;7120;52.890;6.040;2023-02-28T01:08:44;103172.75;;;5.39;84.28
14089;BME280;7120;52.890;6.040;2023-02-28T01:11:11;103167.31;;;5.53;83.83
14089;BME280;7120;52.890;6.040;2023-02-28T01:13:37;103157.72;;;5.50;83.72
14089;BME280;7120;52.890;6.040;2023-02-28T01:16:03;103166.06;;;5.42;84.49
14089;BME280;7120;52.890;6.040;2023-02-28T01:18:28;103163.34;;;5.35;84.36
14089;BME280;7120;52.890;6.040;2023-02-28T01:20:54;103167.75;;;5.43;84.23
14089;BME280;7120;52.890;6.040;2023-02-28T01:23:21;103171.69;;;5.20;85.69
14089;BME280;7120;52.890;6.040;2023-02-28T01:25:48;103166.50;;;5.19;85.47
14089;BME280;7120;52.890;6.040;2023-02-28T01:28:13;103158.16;;;5.01;85.65
14089;BME280;7120;52.890;6.040;2023-02-28T01:30:39;103169.56;;;4.76;87.19
14089;BME280;7120;52.890;6.040;2023-02-28T01:33:04;103168.94;;;4.67;88.44
14089;BME280;7120;52.890;6.040;2023-02-28T01:35:35;103164.13;;;4.69;87.79
14089;BME280;7120;52.890;6.040;2023-02-28T01:38:01;103157.84;;;4.56;88.99
14089;BME280;7120;52.890;6.040;2023-02-28T01:40:27;103153.53;;;4.88;88.25
14089;BME280;7120;52.890;6.040;2023-02-28T01:42:52;103153.97;;;5.11;87.20
14089;BME280;7120;52.890;6.040;2023-02-28T01:45:28;103146.88;;;5.17;86.06
14089;BME280;7120;52.890;6.040;2023-02-28T01:48:01;103146.03;;;5.43;85.63
14089;BME280;7120;52.890;6.040;2023-02-28T01:50:31;103123.91;;;4.93;86.27
14089;BME280;7120;52.890;6.040;2023-02-28T01:53:03;103146.03;;;5.03;87.09
14089;BME280;7120;52.890;6.040;2023-02-28T01:55:30;103148.31;;;5.19;86.92
14089;BME280;7120;52.890;6.040;2023-02-28T01:58:00;103155.44;;;4.94;87.38
14089;BME280;7120;52.890;6.040;2023-02-28T02:00:28;103144.16;;;4.97;87.04
14089;BME280;7120;52.890;6.040;2023-02-28T02:03:00;103140.63;;;5.16;86.57
14089;BME280;7120;52.890;6.040;2023-02-28T02:05:29;103142.50;;;5.22;86.54
14089;BME280;7120;52.890;6.040;2023-02-28T02:07:58;103141.25;;;5.32;86.26
14089;BME280;7120;52.890;6.040;2023-02-28T02:10:33;103139.13;;;5.40;85.69
14089;BME280;7120;52.890;6.040;2023-02-28T02:16:00;103118.91;;;5.23;86.50
14089;BME280;7120;52.890;6.040;2023-02-28T02:21:39;103126.22;;;5.16;86.86
14089;BME280;7120;52.890;6.040;2023-02-28T02:36:07;103126.19;;;5.42;85.56
14089;BME280;7120;52.890;6.040;2023-02-28T02:38:42;103118.03;;;5.42;85.18
14089;BME280;7120;52.890;6.040;2023-02-28T02:41:36;103116.16;;;5.49;85.79
14089;BME280;7120;52.890;6.040;2023-02-28T02:44:15;103128.47;;;5.59;85.40
14089;BME280;7120;52.890;6.040;2023-02-28T02:46:45;103123.25;;;5.57;85.24
14089;BME280;7120;52.890;6.040;2023-02-28T02:49:32;103124.50;;;5.55;84.86
14089;BME280;7120;52.890;6.040;2023-02-28T02:52:02;103110.94;;;5.55;85.48
14089;BME280;7120;52.890;6.040;2023-02-28T02:54:30;103125.94;;;5.64;85.03
14089;BME280;7120;52.890;6.040;2023-02-28T02:57:00;103119.66;;;5.63;85.10
14089;BME280;7120;52.890;6.040;2023-02-28T02:59:28;103109.88;;;5.49;85.31
14089;BME280;7120;52.890;6.040;2023-02-28T03:01:59;103110.28;;;5.59;85.27
14089;BME280;7120;52.890;6.040;2023-02-28T03:04:31;103115.72;;;5.59;85.44
14089;BME280;7120;52.890;6.040;2023-02-28T03:06:58;103115.94;;;5.64;85.13
14089;BME280;7120;52.890;6.040;2023-02-28T03:09:25;103125.31;;;5.62;85.51
14089;BME280;7120;52.890;6.040;2023-02-28T03:11:54;103117.81;;;5.57;85.02
14089;BME280;7120;52.890;6.040;2023-02-28T03:14:30;103125.94;;;5.64;86.13
14089;BME280;7120;52.890;6.040;2023-02-28T03:17:23;103128.63;;;5.64;86.28
14089;BME280;7120;52.890;6.040;2023-02-28T03:30:36;103129.09;;;5.54;87.22
14089;BME280;7120;52.890;6.040;2023-02-28T03:33:10;103122.44;;;5.50;87.32
14089;BME280;7120;52.890;6.040;2023-02-28T03:35:41;103120.75;;;5.42;88.26
14089;BME280;7120;52.890;6.040;2023-02-28T03:38:22;103121.19;;;5.39;88.20
14089;BME280;7120;52.890;6.040;2023-02-28T03:41:00;103122.47;;;5.37;88.67
14089;BME280;7120;52.890;6.040;2023-02-28T03:43:30;103123.28;;;5.44;88.97
14089;BME280;7120;52.890;6.040;2023-02-28T03:45:59;103120.34;;;5.39;88.62
14089;BME280;7120;52.890;6.040;2023-02-28T03:48:31;103122.63;;;5.42;89.23
14089;BME280;7120;52.890;6.040;2023-02-28T03:51:00;103127.03;;;5.43;88.88
14089;BME280;7120;52.890;6.040;2023-02-28T03:53:36;103133.69;;;5.47;88.93
14089;BME280;7120;52.890;6.040;2023-02-28T03:56:23;103130.56;;;5.50;89.09
14089;BME280;7120;52.890;6.040;2023-02-28T03:59:04;103138.28;;;5.46;89.06
14089;BME280;7120;52.890;6.040;2023-02-28T04:04:01;103124.13;;;5.38;89.65
14089;BME280;7120;52.890;6.040;2023-02-28T04:06:27;103119.09;;;5.28;89.43
14089;BME280;7120;52.890;6.040;2023-02-28T04:08:52;103122.88;;;5.27;89.84
14089;BME280;7120;52.890;6.040;2023-02-28T04:11:40;103129.56;;;5.11;89.97
14089;BME280;7120;52.890;6.040;2023-02-28T04:14:05;103125.19;;;4.97;90.92
14089;BME280;7120;52.890;6.040;2023-02-28T04:16:31;103122.44;;;4.77;91.37
14089;BME280;7120;52.890;6.040;2023-02-28T04:18:57;103127.00;;;4.63;91.83
14089;BME280;7120;52.890;6.040;2023-02-28T04:21:33;103120.09;;;4.41;92.73
14089;BME280;7120;52.890;6.040;2023-02-28T04:23:58;103122.41;;;4.44;92.74
14089;BME280;7120;52.890;6.040;2023-02-28T04:26:30;103116.59;;;4.54;92.80
14089;BME280;7120;52.890;6.040;2023-02-28T04:28:56;103122.84;;;4.61;92.06
14089;BME280;7120;52.890;6.040;2023-02-28T04:31:21;103121.53;;;4.44;92.46
14089;BME280;7120;52.890;6.040;2023-02-28T04:33:46;103128.25;;;4.48;92.65
14089;BME280;7120;52.890;6.040;2023-02-28T04:36:12;103123.66;;;4.55;92.65
14089;BME280;7120;52.890;6.040;2023-02-28T04:38:39;103130.72;;;4.43;92.93
14089;BME280;7120;52.890;6.040;2023-02-28T04:41:05;103123.22;;;4.31;93.44
14089;BME280;7120;52.890;6.040;2023-02-28T04:43:31;103133.66;;;3.93;93.60
14089;BME280;7120;52.890;6.040;2023-02-28T04:46:00;103143.22;;;3.82;94.07
14089;BME280;7120;52.890;6.040;2023-02-28T04:48:28;103133.22;;;3.83;94.29
14089;BME280;7120;52.890;6.040;2023-02-28T04:50:53;103146.03;;;3.68;94.83
14089;BME280;7120;52.890;6.040;2023-02-28T04:53:19;103147.09;;;3.73;94.47
14089;BME280;7120;52.890;6.040;2023-02-28T04:55:45;103151.31;;;3.82;94.22
14089;BME280;7120;52.890;6.040;2023-02-28T04:58:12;103148.88;;;3.94;94.12
14089;BME280;7120;52.890;6.040;2023-02-28T05:00:37;103143.59;;;3.79;93.80
14089;BME280;7120;52.890;6.040;2023-02-28T05:03:03;103140.03;;;3.79;94.05
14089;BME280;7120;52.890;6.040;2023-02-28T05:05:28;103157.84;;;3.95;94.02
14089;BME280;7120;52.890;6.040;2023-02-28T05:07:53;103154.25;;;3.81;93.61
14089;BME280;7120;52.890;6.040;2023-02-28T05:10:21;103155.09;;;3.88;93.28
14089;BME280;7120;52.890;6.040;2023-02-28T05:12:46;103151.75;;;3.86;93.52
14089;BME280;7120;52.890;6.040;2023-02-28T05:15:14;103158.50;;;3.62;93.87
14089;BME280;7120;52.890;6.040;2023-02-28T05:17:40;103140.88;;;3.45;93.91
14089;BME280;7120;52.890;6.040;2023-02-28T05:20:06;103159.38;;;3.41;93.72
14089;BME280;7120;52.890;6.040;2023-02-28T05:22:32;103135.56;;;3.30;94.04
14089;BME280;7120;52.890;6.040;2023-02-28T05:24:57;103161.34;;;3.54;93.51
14089;BME280;7120;52.890;6.040;2023-02-28T05:27:23;103146.94;;;3.47;93.55
14089;BME280;7120;52.890;6.040;2023-02-28T05:29:48;103141.91;;;3.44;93.51
14089;BME280;7120;52.890;6.040;2023-02-28T05:32:14;103149.44;;;3.48;93.16
14089;BME280;7120;52.890;6.040;2023-02-28T05:34:40;103150.22;;;3.42;93.22
14089;BME280;7120;52.890;6.040;2023-02-28T05:37:06;103145.19;;;3.33;93.81
14089;BME280;7120;52.890;6.040;2023-02-28T05:39:32;103143.41;;;3.46;94.20
14089;BME280;7120;52.890;6.040;2023-02-28T05:41:58;103146.84;;;3.34;93.75
14089;BME280;7120;52.890;6.040;2023-02-28T05:44:23;103147.78;;;3.47;93.82
14089;BME280;7120;52.890;6.040;2023-02-28T05:46:49;103147.31;;;3.44;93.25
14089;BME280;7120;52.890;6.040;2023-02-28T05:49:14;103142.06;;;3.36;93.52
14089;BME280;7120;52.890;6.040;2023-02-28T05:51:40;103134.72;;;3.01;94.32
14089;BME280;7120;52.890;6.040;2023-02-28T05:54:06;103144.56;;;3.09;95.36
14089;BME280;7120;52.890;6.040;2023-02-28T05:56:32;103141.63;;;3.04;95.64
14089;BME280;7120;52.890;6.040;2023-02-28T05:58:59;103139.88;;;3.18;95.13
14089;BME280;7120;52.890;6.040;2023-02-28T06:03:56;103145.97;;;3.26;94.69
14089;BME280;7120;52.890;6.040;2023-02-28T06:06:21;103147.00;;;3.25;94.91
14089;BME280;7120;52.890;6.040;2023-02-28T06:08:47;103143.75;;;3.37;94.95
14089;BME280;7120;52.890;6.040;2023-02-28T06:11:12;103143.59;;;2.95;94.98
14089;BME280;7120;52.890;6.040;2023-02-28T06:13:38;103157.31;;;3.15;96.09
14089;BME280;7120;52.890;6.040;2023-02-28T06:16:03;103153.81;;;3.21;96.10
14089;BME280;7120;52.890;6.040;2023-02-28T06:18:29;103157.34;;;3.22;95.46
14089;BME280;7120;52.890;6.040;2023-02-28T06:20:55;103166.69;;;3.19;95.47
14089;BME280;7120;52.890;6.040;2023-02-28T06:23:21;103159.28;;;3.28;94.97
14089;BME280;7120;52.890;6.040;2023-02-28T06:25:47;103157.97;;;3.17;95.24
14089;BME280;7120;52.890;6.040;2023-02-28T06:28:12;103168.81;;;3.24;94.67
14089;BME280;7120;52.890;6.040;2023-02-28T06:30:38;103171.75;;;3.29;94.61
14089;BME280;7120;52.890;6.040;2023-02-28T06:33:04;103169.00;;;3.22;94.75
14089;BME280;7120;52.890;6.040;2023-02-28T06:35:30;103178.72;;;3.17;94.25
14089;BME280;7120;52.890;6.040;2023-02-28T06:37:55;103180.28;;;3.26;94.31
14089;BME280;7120;52.890;6.040;2023-02-28T06:40:20;103177.88;;;3.16;94.26
14089;BME280;7120;52.890;6.040;2023-02-28T06:42:46;103173.22;;;3.03;94.36
14089;BME280;7120;52.890;6.040;2023-02-28T06:45:11;103180.91;;;3.28;94.32
14089;BME280;7120;52.890;6.040;2023-02-28T06:47:38;103182.16;;;3.25;94.06
14089;BME280;7120;52.890;6.040;2023-02-28T06:50:05;103182.63;;;3.36;93.73
14089;BME280;7120;52.890;6.040;2023-02-28T06:52:31;103183.66;;;3.35;93.65
14089;BME280;7120;52.890;6.040;2023-02-28T06:54:56;103184.91;;;3.32;93.81
14089;BME280;7120;52.890;6.040;2023-02-28T06:57:31;103189.28;;;3.33;93.75
14089;BME280;7120;52.890;6.040;2023-02-28T07:00:03;103176.81;;;3.32;93.17
14089;BME280;7120;52.890;6.040;2023-02-28T07:02:29;103199.44;;;3.31;92.98
14089;BME280;7120;52.890;6.040;2023-02-28T07:04:54;103195.63;;;3.19;93.67
14089;BME280;7120;52.890;6.040;2023-02-28T07:07:20;103186.97;;;3.09;94.45
14089;BME280;7120;52.890;6.040;2023-02-28T07:09:45;103208.44;;;3.10;94.61
14089;BME280;7120;52.890;6.040;2023-02-28T07:12:11;103212.53;;;3.27;94.72
14089;BME280;7120;52.890;6.040;2023-02-28T07:14:37;103210.16;;;3.39;94.55
14089;BME280;7120;52.890;6.040;2023-02-28T07:17:02;103208.22;;;3.61;93.71
14089;BME280;7120;52.890;6.040;2023-02-28T07:19:28;103206.69;;;3.52;93.70
14089;BME280;7120;52.890;6.040;2023-02-28T07:21:53;103213.53;;;3.48;93.42
14089;BME280;7120;52.890;6.040;2023-02-28T07:24:19;103210.63;;;3.49;93.14
14089;BME280;7120;52.890;6.040;2023-02-28T07:26:44;103213.84;;;3.66;92.92
14089;BME280;7120;52.890;6.040;2023-02-28T07:29:10;103210.63;;;3.49;92.75
14089;BME280;7120;52.890;6.040;2023-02-28T07:31:35;103214.56;;;3.75;92.68
14089;BME280;7120;52.890;6.040;2023-02-28T07:34:00;103206.69;;;3.52;92.38
14089;BME280;7120;52.890;6.040;2023-02-28T07:36:26;103213.38;;;3.56;92.37
14089;BME280;7120;52.890;6.040;2023-02-28T07:38:51;103219.41;;;3.86;92.49
14089;BME280;7120;52.890;6.040;2023-02-28T07:41:19;103222.53;;;3.83;92.47
14089;BME280;7120;52.890;6.040;2023-02-28T07:43:46;103224.53;;;4.02;92.25
14089;BME280;7120;52.890;6.040;2023-02-28T07:46:13;103217.66;;;4.06;91.83
14089;BME280;7120;52.890;6.040;2023-02-28T07:48:40;103213.69;;;4.02;90.39
14089;BME280;7120;52.890;6.040;2023-02-28T07:51:06;103224.03;;;3.92;91.26
14089;BME280;7120;52.890;6.040;2023-02-28T07:53:32;103219.19;;;4.22;91.18
14089;BME280;7120;52.890;6.040;2023-02-28T07:55:58;103227.19;;;3.96;90.64
14089;BME280;7120;52.890;6.040;2023-02-28T07:58:25;103201.06;;;4.16;91.10
14089;BME280;7120;52.890;6.040;2023-02-28T08:00:51;103226.34;;;4.36;90.30
14089;BME280;7120;52.890;6.040;2023-02-28T08:03:18;103219.78;;;4.11;90.63
14089;BME280;7120;52.890;6.040;2023-02-28T08:05:43;103223.41;;;4.25;91.12
14089;BME280;7120;52.890;6.040;2023-02-28T08:08:09;103223.50;;;4.03;90.37
14089;BME280;7120;52.890;6.040;2023-02-28T08:10:34;103224.63;;;4.22;90.24
14089;BME280;7120;52.890;6.040;2023-02-28T08:13:00;103221.41;;;4.05;91.09
14089;BME280;7120;52.890;6.040;2023-02-28T08:15:25;103229.59;;;4.19;90.69
14089;BME280;7120;52.890;6.040;2023-02-28T08:17:51;103223.00;;;3.93;91.04
14089;BME280;7120;52.890;6.040;2023-02-28T08:20:16;103225.72;;;4.34;90.96
14089;BME280;7120;52.890;6.040;2023-02-28T08:22:42;103240.94;;;4.35;90.02
14089;BME280;7120;52.890;6.040;2023-02-28T08:25:08;103232.28;;;4.53;89.81
14089;BME280;7120;52.890;6.040;2023-02-28T08:27:34;103235.97;;;4.39;90.08
14089;BME280;7120;52.890;6.040;2023-02-28T08:29:59;103227.63;;;4.40;90.17
14089;BME280;7120;52.890;6.040;2023-02-28T08:32:25;103228.53;;;4.54;88.58
14089;BME280;7120;52.890;6.040;2023-02-28T08:34:50;103220.16;;;4.49;88.90
14089;BME280;7120;52.890;6.040;2023-02-28T08:37:16;103229.59;;;4.60;89.05
14089;BME280;7120;52.890;6.040;2023-02-28T08:39:41;103240.66;;;4.72;88.17
14089;BME280;7120;52.890;6.040;2023-02-28T08:42:07;103237.16;;;4.84;87.87
14089;BME280;7120;52.890;6.040;2023-02-28T08:44:32;103228.66;;;5.20;86.82
14089;BME280;7120;52.890;6.040;2023-02-28T08:46:58;103234.91;;;5.21;86.13
14089;BME280;7120;52.890;6.040;2023-02-28T08:49:23;103231.19;;;5.29;86.03
14089;BME280;7120;52.890;6.040;2023-02-28T08:51:48;103246.44;;;5.30;85.84
14089;BME280;7120;52.890;6.040;2023-02-28T08:54:14;103238.06;;;5.31;83.95
14089;BME280;7120;52.890;6.040;2023-02-28T08:56:44;103236.59;;;5.48;83.98
14089;BME280;7120;52.890;6.040;2023-02-28T08:59:10;103238.72;;;5.93;81.10
14089;BME280;7120;52.890;6.040;2023-02-28T09:01:35;103244.34;;;5.71;83.32
14089;BME280;7120;52.890;6.040;2023-02-28T09:04:02;103239.72;;;5.98;82.57
14089;BME280;7120;52.890;6.040;2023-02-28T09:06:27;103238.72;;;5.93;81.21
14089;BME280;7120;52.890;6.040;2023-02-28T09:08:56;103244.97;;;5.73;82.91
14089;BME280;7120;52.890;6.040;2023-02-28T09:11:23;103240.75;;;6.04;81.59
14089;BME280;7120;52.890;6.040;2023-02-28T09:13:49;103234.00;;;6.26;83.97
14089;BME280;7120;52.890;6.040;2023-02-28T09:16:15;103242.78;;;6.28;82.22
14089;BME280;7120;52.890;6.040;2023-02-28T09:18:41;103246.91;;;6.44;81.46
14089;BME280;7120;52.890;6.040;2023-02-28T09:21:08;103249.72;;;6.69;80.28
14089;BME280;7120;52.890;6.040;2023-02-28T09:23:35;103232.69;;;6.49;79.81
14089;BME280;7120;52.890;6.040;2023-02-28T09:26:03;103240.38;;;6.58;82.71
14089;BME280;7120;52.890;6.040;2023-02-28T09:28:28;103250.78;;;6.61;82.36
14089;BME280;7120;52.890;6.040;2023-02-28T09:30:54;103256.44;;;6.67;82.69
14089;BME280;7120;52.890;6.040;2023-02-28T09:33:21;103258.53;;;7.03;81.56
14089;BME280;7120;52.890;6.040;2023-02-28T09:35:47;103252.69;;;6.61;80.16
14089;BME280;7120;52.890;6.040;2023-02-28T09:38:13;103251.47;;;6.95;79.76
14089;BME280;7120;52.890;6.040;2023-02-28T09:40:50;103259.28;;;7.16;83.23
14089;BME280;7120;52.890;6.040;2023-02-28T09:43:17;103243.00;;;7.41;79.72
14089;BME280;7120;52.890;6.040;2023-02-28T09:45:59;103251.44;;;7.83;75.59
14089;BME280;7120;52.890;6.040;2023-02-28T09:48:32;103251.38;;;7.65;75.21
14089;BME280;7120;52.890;6.040;2023-02-28T09:51:23;103251.31;;;8.51;74.67
14089;BME280;7120;52.890;6.040;2023-02-28T09:53:52;103242.72;;;8.85;78.34
14089;BME280;7120;52.890;6.040;2023-02-28T10:02:21;103235.72;;;9.42;70.28
14089;BME280;7120;52.890;6.040;2023-02-28T10:04:53;103244.31;;;9.69;70.97
14089;BME280;7120;52.890;6.040;2023-02-28T10:13:16;103242.94;;;10.82;60.99
14089;BME280;7120;52.890;6.040;2023-02-28T10:15:46;103230.78;;;10.50;62.89
14089;BME280;7120;52.890;6.040;2023-02-28T10:23:46;103265.34;;;9.03;64.02
14089;BME280;7120;52.890;6.040;2023-02-28T10:26:16;103250.28;;;9.13;65.01
14089;BME280;7120;52.890;6.040;2023-02-28T10:28:42;103255.00;;;9.05;63.40
14089;BME280;7120;52.890;6.040;2023-02-28T10:31:13;103261.06;;;9.84;60.69
14089;BME280;7120;52.890;6.040;2023-02-28T10:33:39;103251.94;;;10.02;65.17
14089;BME280;7120;52.890;6.040;2023-02-28T10:36:05;103248.56;;;10.76;66.88
14089;BME280;7120;52.890;6.040;2023-02-28T10:38:37;103256.63;;;10.54;61.93
14089;BME280;7120;52.890;6.040;2023-02-28T10:41:14;103251.72;;;10.56;59.55
14089;BME280;7120;52.890;6.040;2023-02-28T10:43:41;103257.41;;;10.66;60.76
14089;BME280;7120;52.890;6.040;2023-02-28T10:48:40;103252.94;;;8.89;64.16
14089;BME280;7120;52.890;6.040;2023-02-28T10:51:18;103249.88;;;9.39;62.94
14089;BME280;7120;52.890;6.040;2023-02-28T10:53:50;103239.19;;;10.31;55.56
14089;BME280;7120;52.890;6.040;2023-02-28T10:56:21;103232.19;;;10.64;54.44
14089;BME280;7120;52.890;6.040;2023-02-28T10:58:50;103240.59;;;10.74;57.65
14089;BME280;7120;52.890;6.040;2023-02-28T11:03:57;103230.13;;;10.71;56.75
14089;BME280;7120;52.890;6.040;2023-02-28T11:06:31;103234.22;;;11.47;56.53
14089;BME280;7120;52.890;6.040;2023-02-28T11:09:45;103211.81;;;11.00;54.97
14089;BME280;7120;52.890;6.040;2023-02-28T11:11:46;103231.81;;;11.34;55.34
14089;BME280;7120;52.890;6.040;2023-02-28T11:14:29;103216.84;;;11.75;57.73
14089;BME280;7120;52.890;6.040;2023-02-28T11:17:13;103221.63;;;11.63;48.90
14089;BME280;7120;52.890;6.040;2023-02-28T11:19:44;103216.22;;;11.51;48.52
14089;BME280;7120;52.890;6.040;2023-02-28T11:22:17;103222.13;;;12.37;46.24
14089;BME280;7120;52.890;6.040;2023-02-28T11:24:46;103218.91;;;12.02;44.73
14089;BME280;7120;52.890;6.040;2023-02-28T11:27:42;103226.88;;;12.03;50.44
14089;BME280;7120;52.890;6.040;2023-02-28T11:30:37;103221.84;;;12.39;47.27
14089;BME280;7120;52.890;6.040;2023-02-28T11:33:28;103221.22;;;12.10;51.35
14089;BME280;7120;52.890;6.040;2023-02-28T11:36:08;103222.09;;;12.59;45.59
14089;BME280;7120;52.890;6.040;2023-02-28T11:38:35;103212.94;;;12.27;41.50
14089;BME280;7120;52.890;6.040;2023-02-28T11:41:19;103214.31;;;11.86;43.92
14089;BME280;7120;52.890;6.040;2023-02-28T11:46:46;103209.81;;;10.67;49.51
14089;BME280;7120;52.890;6.040;2023-02-28T11:52:01;103218.22;;;11.39;53.62
14089;BME280;7120;52.890;6.040;2023-02-28T11:57:34;103211.81;;;11.34;51.40
14089;BME280;7120;52.890;6.040;2023-02-28T12:00:19;103214.78;;;12.21;43.70
14089;BME280;7120;52.890;6.040;2023-02-28T12:05:48;103207.25;;;11.56;43.60
14089;BME280;7120;52.890;6.040;2023-02-28T12:08:50;103197.03;;;11.18;47.22
14089;BME280;7120;52.890;6.040;2023-02-28T12:11:43;103197.44;;;11.77;49.18
14089;BME280;7120;52.890;6.040;2023-02-28T12:14:30;103200.78;;;12.45;46.65
14089;BME280;7120;52.890;6.040;2023-02-28T12:22:47;103189.25;;;11.99;44.87
14089;BME280;7120;52.890;6.040;2023-02-28T12:25:44;103189.88;;;9.91;48.91
14089;BME280;7120;52.890;6.040;2023-02-28T12:28:17;103188.75;;;10.39;51.30
14089;BME280;7120;52.890;6.040;2023-02-28T12:30:54;103175.78;;;9.47;50.64
14089;BME280;7120;52.890;6.040;2023-02-28T12:33:26;103183.34;;;9.10;52.63
14089;BME280;7120;52.890;6.040;2023-02-28T12:35:59;103183.97;;;9.24;53.81
14089;BME280;7120;52.890;6.040;2023-02-28T12:38:29;103168.00;;;9.09;55.82
14089;BME280;7120;52.890;6.040;2023-02-28T12:41:11;103171.38;;;9.46;54.22
14089;BME280;7120;52.890;6.040;2023-02-28T12:43:43;103183.91;;;11.03;49.98
14089;BME280;7120;52.890;6.040;2023-02-28T12:46:25;103165.50;;;11.15;47.57
14089;BME280;7120;52.890;6.040;2023-02-28T12:48:59;103171.47;;;11.46;52.98
14089;BME280;7120;52.890;6.040;2023-02-28T12:51:28;103170.56;;;12.18;51.84
14089;BME280;7120;52.890;6.040;2023-02-28T13:10:44;103148.25;;;10.24;54.60
14089;BME280;7120;52.890;6.040;2023-02-28T13:13:16;103143.25;;;10.50;49.22
14089;BME280;7120;52.890;6.040;2023-02-28T13:15:58;103143.25;;;11.28;49.23
14089;BME280;7120;52.890;6.040;2023-02-28T13:18:35;103140.59;;;11.89;50.68
14089;BME280;7120;52.890;6.040;2023-02-28T13:21:03;103136.09;;;12.49;49.67
14089;BME280;7120;52.890;6.040;2023-02-28T13:26:17;103118.13;;;12.14;45.20
14089;BME280;7120;52.890;6.040;2023-02-28T13:31:20;103126.50;;;12.02;45.51
14089;BME280;7120;52.890;6.040;2023-02-28T13:36:29;103127.41;;;11.86;48.76
14089;BME280;7120;52.890;6.040;2023-02-28T13:38:57;103121.00;;;10.91;50.01
14089;BME280;7120;52.890;6.040;2023-02-28T13:44:20;103125.88;;;9.63;50.61
14089;BME280;7120;52.890;6.040;2023-02-28T14:05:42;103123.28;;;9.10;51.92
14089;BME280;7120;52.890;6.040;2023-02-28T14:08:17;103103.31;;;8.74;54.89
14089;BME280;7120;52.890;6.040;2023-02-28T14:10:48;103113.03;;;8.82;52.90
14089;BME280;7120;52.890;6.040;2023-02-28T14:16:03;103112.03;;;9.18;52.53
14089;BME280;7120;52.890;6.040;2023-02-28T14:18:31;103109.97;;;9.02;52.51
14089;BME280;7120;52.890;6.040;2023-02-28T14:21:32;103093.63;;;9.25;54.90
14089;BME280;7120;52.890;6.040;2023-02-28T14:24:42;103115.06;;;8.87;53.81
14089;BME280;7120;52.890;6.040;2023-02-28T14:27:11;103121.41;;;7.90;56.11
14089;BME280;7120;52.890;6.040;2023-02-28T14:32:47;103122.69;;;7.51;56.32
14089;BME280;7120;52.890;6.040;2023-02-28T14:35:35;103114.81;;;7.18;59.55
14089;BME280;7120;52.890;6.040;2023-02-28T14:38:06;103118.13;;;7.27;56.99
14089;BME280;7120;52.890;6.040;2023-02-28T14:40:39;103123.34;;;7.47;59.04
14089;BME280;7120;52.890;6.040;2023-02-28T14:43:16;103120.94;;;7.75;54.43
14089;BME280;7120;52.890;6.040;2023-02-28T14:45:43;103123.22;;;7.78;55.44
14089;BME280;7120;52.890;6.040;2023-02-28T14:48:09;103113.25;;;7.90;53.26
14089;BME280;7120;52.890;6.040;2023-02-28T14:50:36;103115.91;;;7.97;54.33
14089;BME280;7120;52.890;6.040;2023-02-28T14:53:02;103116.00;;;8.20;52.77
14089;BME280;7120;52.890;6.040;2023-02-28T14:55:34;103119.78;;;8.19;53.58
14089;BME280;7120;52.890;6.040;2023-02-28T14:58:05;103115.44;;;8.00;56.63
14089;BME280;7120;52.890;6.040;2023-02-28T15:00:39;103106.34;;;7.88;56.32
14089;BME280;7120;52.890;6.040;2023-02-28T15:03:19;103109.59;;;7.41;58.68
14089;BME280;7120;52.890;6.040;2023-02-28T15:05:57;103106.88;;;7.41;57.71
14089;BME280;7120;52.890;6.040;2023-02-28T15:08:24;103106.19;;;7.28;57.72
14089;BME280;7120;52.890;6.040;2023-02-28T15:11:08;103103.84;;;7.50;58.44
14089;BME280;7120;52.890;6.040;2023-02-28T15:13:46;103112.75;;;7.38;58.58
14089;BME280;7120;52.890;6.040;2023-02-28T15:16:26;103096.91;;;7.10;58.50
14089;BME280;7120;52.890;6.040;2023-02-28T15:18:58;103093.41;;;7.03;57.93
14089;BME280;7120;52.890;6.040;2023-02-28T15:21:28;103098.78;;;7.10;58.22
14089;BME280;7120;52.890;6.040;2023-02-28T15:24:27;103102.50;;;7.15;57.12
14089;BME280;7120;52.890;6.040;2023-02-28T15:26:58;103089.31;;;7.19;56.23
14089;BME280;7120;52.890;6.040;2023-02-28T15:29:26;103091.41;;;7.17;55.04